CCA902 ZKPY-ZBAA
Flight info
| Callsign | CCA902 |
|---|---|
| Flight time | 1h 38m |
| Altitude | 27600 |
| Route | K0848S1100 JON11D JONJU L683 YOMJU A575 GOLOT A345 BIDIB A575 UKDUM W49 OSUBA OSUBA6J |
| Aircraft | B738/M-SDE2E3FGHIRWXY/LB1 |
Departure
| Time | 2026-04-24 14:57 |
|---|---|
| Airport | Pyongyang Sunan International Airport (ZKPY) |
Arrival
| Time | 2026-04-24 16:35 |
|---|---|
| Airport | Beijing Capital International Airport (ZBAA) |
| Time | Latitude | Longitude | Altitude | Speed | Heading |
|---|---|---|---|---|---|
| 2026-04-24 14:30 | 39.20045 | 125.67577 | 94 ft | 0 kts | 72° |
| 2026-04-24 14:47 | 39.20041 | 125.67559 | 91 ft | 2 kts | 72° |
| 2026-04-24 14:47 | 39.20036 | 125.67541 | 91 ft | 2 kts | 73° |
| 2026-04-24 14:47 | 39.20031 | 125.67522 | 91 ft | 2 kts | 79° |
| 2026-04-24 14:48 | 39.20032 | 125.67503 | 91 ft | 2 kts | 112° |
| 2026-04-24 14:48 | 39.20041 | 125.67487 | 91 ft | 2 kts | 141° |
| 2026-04-24 14:48 | 39.20050 | 125.67480 | 91 ft | 0 kts | 161° |
| 2026-04-24 14:48 | 39.20057 | 125.67477 | 91 ft | 0 kts | 163° |
| 2026-04-24 14:49 | 39.20056 | 125.67477 | 91 ft | 0 kts | 163° |
| 2026-04-24 14:50 | 39.20053 | 125.67479 | 90 ft | 0 kts | 163° |
| 2026-04-24 14:50 | 39.20047 | 125.67481 | 90 ft | 3 kts | 162° |
| 2026-04-24 14:50 | 39.19992 | 125.67506 | 90 ft | 13 kts | 161° |
| 2026-04-24 14:50 | 39.19943 | 125.67528 | 90 ft | 0 kts | 162° |
| 2026-04-24 14:51 | 39.19902 | 125.67543 | 90 ft | 13 kts | 164° |
| 2026-04-24 14:51 | 39.19795 | 125.67585 | 89 ft | 19 kts | 163° |
| 2026-04-24 14:51 | 39.19647 | 125.67645 | 87 ft | 23 kts | 162° |
| 2026-04-24 14:51 | 39.19495 | 125.67705 | 86 ft | 22 kts | 163° |
| 2026-04-24 14:52 | 39.19336 | 125.67768 | 86 ft | 25 kts | 164° |
| 2026-04-24 14:52 | 39.19171 | 125.67828 | 87 ft | 23 kts | 177° |
| 2026-04-24 14:52 | 39.19100 | 125.67696 | 86 ft | 20 kts | 288° |
| 2026-04-24 14:52 | 39.19179 | 125.67571 | 87 ft | 8 kts | 342° |
| 2026-04-24 14:53 | 39.19182 | 125.67570 | 86 ft | 0 kts | 342° |
| 2026-04-24 14:56 | 39.19243 | 125.67545 | 86 ft | 40 kts | 343° |
| 2026-04-24 14:56 | 39.19806 | 125.67322 | 90 ft | 126 kts | 342° |
| 2026-04-24 14:56 | 39.20871 | 125.66914 | 285 ft | 180 kts | 345° |
| 2026-04-24 14:57 | 39.22075 | 125.66426 | 1116 ft | 186 kts | 342° |
| 2026-04-24 14:57 | 39.23276 | 125.65867 | 1801 ft | 190 kts | 331° |
| 2026-04-24 14:57 | 39.24373 | 125.64872 | 2264 ft | 198 kts | 319° |
| 2026-04-24 14:57 | 39.25504 | 125.63712 | 2631 ft | 217 kts | 321° |
| 2026-04-24 14:58 | 39.26779 | 125.62519 | 3126 ft | 231 kts | 322° |
| 2026-04-24 14:58 | 39.28125 | 125.61314 | 3651 ft | 244 kts | 323° |
| 2026-04-24 14:58 | 39.29556 | 125.60037 | 4160 ft | 257 kts | 322° |
| 2026-04-24 14:58 | 39.31058 | 125.58689 | 4673 ft | 269 kts | 322° |
| 2026-04-24 14:59 | 39.32643 | 125.57258 | 5193 ft | 282 kts | 322° |
| 2026-04-24 14:59 | 39.34273 | 125.55786 | 5690 ft | 294 kts | 322° |
| 2026-04-24 14:59 | 39.35993 | 125.54234 | 6195 ft | 306 kts | 322° |
| 2026-04-24 14:59 | 39.37775 | 125.52625 | 6705 ft | 317 kts | 322° |
| 2026-04-24 15:00 | 39.39594 | 125.50983 | 7196 ft | 327 kts | 323° |
| 2026-04-24 15:00 | 39.41505 | 125.49257 | 7693 ft | 337 kts | 323° |
| 2026-04-24 15:00 | 39.43454 | 125.47495 | 8190 ft | 346 kts | 323° |
| 2026-04-24 15:00 | 39.45451 | 125.45689 | 8693 ft | 355 kts | 323° |
| 2026-04-24 15:01 | 39.47471 | 125.43863 | 9189 ft | 358 kts | 323° |
| 2026-04-24 15:01 | 39.49505 | 125.41976 | 9702 ft | 360 kts | 321° |
| 2026-04-24 15:01 | 39.51482 | 125.39957 | 10194 ft | 362 kts | 319° |
| 2026-04-24 15:01 | 39.53424 | 125.37864 | 10694 ft | 364 kts | 318° |
| 2026-04-24 15:02 | 39.55381 | 125.35725 | 11187 ft | 369 kts | 318° |
| 2026-04-24 15:02 | 39.57333 | 125.33607 | 11678 ft | 370 kts | 318° |
| 2026-04-24 15:02 | 39.59345 | 125.31448 | 12193 ft | 375 kts | 318° |
| 2026-04-24 15:02 | 39.61346 | 125.29317 | 12671 ft | 377 kts | 318° |
| 2026-04-24 15:03 | 39.62708 | 125.27870 | 13020 ft | 378 kts | 318° |
| 2026-04-24 15:03 | 39.65445 | 125.24964 | 13695 ft | 383 kts | 318° |
| 2026-04-24 15:03 | 39.67504 | 125.22775 | 14203 ft | 385 kts | 318° |
| 2026-04-24 15:03 | 39.69514 | 125.20483 | 14696 ft | 386 kts | 315° |
| 2026-04-24 15:04 | 39.71448 | 125.18027 | 15197 ft | 390 kts | 312° |
| 2026-04-24 15:04 | 39.73333 | 125.15475 | 15721 ft | 392 kts | 311° |
| 2026-04-24 15:04 | 39.75216 | 125.12872 | 16206 ft | 395 kts | 311° |
| 2026-04-24 15:04 | 39.77088 | 125.10287 | 16699 ft | 399 kts | 311° |
| 2026-04-24 15:05 | 39.79027 | 125.07636 | 17243 ft | 400 kts | 312° |
| 2026-04-24 15:05 | 39.80946 | 125.05037 | 17739 ft | 404 kts | 312° |
| 2026-04-24 15:05 | 39.82912 | 125.02383 | 18255 ft | 407 kts | 312° |
| 2026-04-24 15:05 | 39.84874 | 124.99741 | 18749 ft | 410 kts | 312° |
| 2026-04-24 15:06 | 39.86874 | 124.97051 | 19269 ft | 412 kts | 312° |
| 2026-04-24 15:06 | 39.88871 | 124.94361 | 19787 ft | 413 kts | 312° |
| 2026-04-24 15:06 | 39.90877 | 124.91659 | 20314 ft | 415 kts | 313° |
| 2026-04-24 15:06 | 39.92883 | 124.88952 | 20842 ft | 420 kts | 312° |
| 2026-04-24 15:07 | 39.94912 | 124.86208 | 21368 ft | 423 kts | 312° |
| 2026-04-24 15:07 | 39.96959 | 124.83438 | 21892 ft | 426 kts | 313° |
| 2026-04-24 15:07 | 39.99027 | 124.80640 | 22420 ft | 429 kts | 313° |
| 2026-04-24 15:07 | 40.01102 | 124.77831 | 22945 ft | 431 kts | 313° |
| 2026-04-24 15:08 | 40.03164 | 124.75039 | 23477 ft | 432 kts | 313° |
| 2026-04-24 15:08 | 40.05257 | 124.72198 | 24012 ft | 435 kts | 313° |
| 2026-04-24 15:08 | 40.07370 | 124.69322 | 24530 ft | 437 kts | 313° |
| 2026-04-24 15:08 | 40.09460 | 124.66475 | 25056 ft | 439 kts | 313° |
| 2026-04-24 15:09 | 40.11586 | 124.63574 | 25586 ft | 440 kts | 312° |
| 2026-04-24 15:09 | 40.13707 | 124.60677 | 26116 ft | 442 kts | 312° |
| 2026-04-24 15:09 | 40.15834 | 124.57768 | 26644 ft | 443 kts | 311° |
| 2026-04-24 15:09 | 40.17894 | 124.54812 | 27165 ft | 442 kts | 308° |
| 2026-04-24 15:10 | 40.19703 | 124.51598 | 27692 ft | 440 kts | 301° |
| 2026-04-24 15:10 | 40.21164 | 124.48092 | 28228 ft | 437 kts | 293° |
| 2026-04-24 15:10 | 40.22271 | 124.44380 | 28768 ft | 434 kts | 288° |
| 2026-04-24 15:10 | 40.23198 | 124.40667 | 29297 ft | 431 kts | 288° |
| 2026-04-24 15:11 | 40.24263 | 124.36996 | 29822 ft | 429 kts | 293° |
| 2026-04-24 15:11 | 40.25710 | 124.33596 | 30225 ft | 432 kts | 301° |
| 2026-04-24 15:11 | 40.27634 | 124.30542 | 30273 ft | 437 kts | 313° |
| 2026-04-24 15:12 | 40.32662 | 124.26151 | 30280 ft | 433 kts | 329° |
| 2026-04-24 15:12 | 40.41348 | 124.22202 | 30285 ft | 447 kts | 348° |
| 2026-04-24 15:13 | 40.47645 | 124.21905 | 30269 ft | 456 kts | 360° |
| 2026-04-24 15:13 | 40.53925 | 124.23730 | 30275 ft | 460 kts | 5° |
| 2026-04-24 15:14 | 40.60239 | 124.24197 | 30277 ft | 448 kts | 352° |
| 2026-04-24 15:14 | 40.66498 | 124.23489 | 30273 ft | 446 kts | 348° |
| 2026-04-24 15:15 | 40.72695 | 124.22665 | 30283 ft | 446 kts | 349° |
| 2026-04-24 15:15 | 40.78952 | 124.21944 | 30259 ft | 449 kts | 349° |
| 2026-04-24 15:16 | 40.85144 | 124.21310 | 30279 ft | 448 kts | 350° |
| 2026-04-24 15:16 | 40.91397 | 124.20703 | 30271 ft | 448 kts | 350° |
| 2026-04-24 15:17 | 40.97631 | 124.20124 | 30264 ft | 448 kts | 350° |
| 2026-04-24 15:17 | 41.03837 | 124.19547 | 30271 ft | 447 kts | 350° |
| 2026-04-24 15:18 | 41.10068 | 124.18961 | 30264 ft | 448 kts | 350° |
| 2026-04-24 15:18 | 41.16333 | 124.18380 | 30260 ft | 448 kts | 350° |
| 2026-04-24 15:19 | 41.22575 | 124.17849 | 30259 ft | 448 kts | 351° |
| 2026-04-24 15:19 | 41.28840 | 124.17316 | 30257 ft | 446 kts | 349° |
| 2026-04-24 15:20 | 41.34797 | 124.15560 | 30252 ft | 434 kts | 332° |
| 2026-04-24 15:20 | 41.39957 | 124.11523 | 30257 ft | 425 kts | 320° |
| 2026-04-24 15:21 | 41.44179 | 124.06117 | 30255 ft | 418 kts | 303° |
| 2026-04-24 15:21 | 41.46970 | 123.99362 | 30251 ft | 414 kts | 291° |
| 2026-04-24 15:22 | 41.48510 | 123.92120 | 30244 ft | 393 kts | 276° |
| 2026-04-24 15:23 | 41.48344 | 123.81236 | 30246 ft | 399 kts | 262° |
| 2026-04-24 15:23 | 41.46595 | 123.70391 | 30243 ft | 399 kts | 268° |
| 2026-04-24 15:25 | 41.47918 | 123.52902 | 30238 ft | 403 kts | 279° |
| 2026-04-24 15:26 | 41.50229 | 123.33146 | 30226 ft | 400 kts | 278° |
| 2026-04-24 15:27 | 41.52840 | 123.11356 | 30208 ft | 398 kts | 279° |
| 2026-04-24 15:29 | 41.55483 | 122.89491 | 30196 ft | 399 kts | 279° |
| 2026-04-24 15:30 | 41.56827 | 122.78210 | 30191 ft | 413 kts | 279° |
| 2026-04-24 15:31 | 41.58446 | 122.64429 | 30195 ft | 411 kts | 279° |
| 2026-04-24 15:33 | 41.62078 | 122.32971 | 30191 ft | 412 kts | 279° |
| 2026-04-24 15:34 | 41.64142 | 122.13938 | 30190 ft | 414 kts | 276° |
| 2026-04-24 15:35 | 41.63361 | 121.94674 | 30188 ft | 417 kts | 266° |
| 2026-04-24 15:36 | 41.62761 | 121.86957 | 30185 ft | 418 kts | 266° |
| 2026-04-24 15:36 | 41.61876 | 121.75253 | 30184 ft | 422 kts | 266° |
| 2026-04-24 15:37 | 41.61290 | 121.67467 | 30187 ft | 423 kts | 266° |
| 2026-04-24 15:37 | 41.60699 | 121.59632 | 30187 ft | 423 kts | 266° |
| 2026-04-24 15:38 | 41.60109 | 121.51870 | 30183 ft | 423 kts | 266° |
| 2026-04-24 15:38 | 41.59511 | 121.44067 | 30187 ft | 423 kts | 266° |
| 2026-04-24 15:39 | 41.58907 | 121.36262 | 30184 ft | 423 kts | 266° |
| 2026-04-24 15:39 | 41.58296 | 121.28425 | 30188 ft | 422 kts | 266° |
| 2026-04-24 15:40 | 41.57684 | 121.20644 | 30186 ft | 423 kts | 266° |
| 2026-04-24 15:40 | 41.57141 | 121.12790 | 30185 ft | 422 kts | 268° |
| 2026-04-24 15:41 | 41.56785 | 121.04995 | 30184 ft | 422 kts | 268° |
| 2026-04-24 15:41 | 41.56437 | 120.97181 | 30190 ft | 423 kts | 268° |
| 2026-04-24 15:42 | 41.56065 | 120.89325 | 30189 ft | 422 kts | 268° |
| 2026-04-24 15:42 | 41.55678 | 120.81500 | 30189 ft | 426 kts | 268° |
| 2026-04-24 15:43 | 41.55277 | 120.73620 | 30191 ft | 425 kts | 268° |
| 2026-04-24 15:43 | 41.54867 | 120.65743 | 30196 ft | 425 kts | 268° |
| 2026-04-24 15:44 | 41.54448 | 120.57848 | 30191 ft | 426 kts | 268° |
| 2026-04-24 15:44 | 41.54029 | 120.49985 | 30188 ft | 427 kts | 268° |
| 2026-04-24 15:45 | 41.53607 | 120.42047 | 30185 ft | 428 kts | 269° |
| 2026-04-24 15:45 | 41.53424 | 120.34155 | 30186 ft | 428 kts | 271° |
| 2026-04-24 15:46 | 41.53373 | 120.26205 | 30190 ft | 428 kts | 271° |
| 2026-04-24 15:46 | 41.53311 | 120.18256 | 30186 ft | 429 kts | 271° |
| 2026-04-24 15:47 | 41.53220 | 120.10297 | 30184 ft | 430 kts | 271° |
| 2026-04-24 15:47 | 41.53110 | 120.02351 | 30185 ft | 429 kts | 271° |
| 2026-04-24 15:48 | 41.52990 | 119.94329 | 30187 ft | 433 kts | 271° |
| 2026-04-24 15:48 | 41.52861 | 119.86328 | 30188 ft | 432 kts | 271° |
| 2026-04-24 15:49 | 41.52725 | 119.78343 | 30189 ft | 432 kts | 271° |
| 2026-04-24 15:49 | 41.52582 | 119.70335 | 30192 ft | 432 kts | 271° |
| 2026-04-24 15:50 | 41.52435 | 119.62348 | 30197 ft | 432 kts | 271° |
| 2026-04-24 15:50 | 41.52281 | 119.54306 | 30200 ft | 433 kts | 271° |
| 2026-04-24 15:51 | 41.52123 | 119.46261 | 30202 ft | 434 kts | 271° |
| 2026-04-24 15:51 | 41.51958 | 119.38212 | 30199 ft | 435 kts | 271° |
| 2026-04-24 15:52 | 41.51784 | 119.30091 | 30196 ft | 437 kts | 270° |
| 2026-04-24 15:52 | 41.51606 | 119.22031 | 30194 ft | 436 kts | 270° |
| 2026-04-24 15:53 | 41.51422 | 119.13921 | 30193 ft | 435 kts | 270° |
| 2026-04-24 15:53 | 41.51234 | 119.05898 | 30196 ft | 436 kts | 271° |
| 2026-04-24 15:54 | 41.51039 | 118.97789 | 30191 ft | 437 kts | 271° |
| 2026-04-24 15:54 | 41.50840 | 118.89716 | 30197 ft | 436 kts | 271° |
| 2026-04-24 15:55 | 41.50635 | 118.81620 | 30195 ft | 438 kts | 271° |
| 2026-04-24 15:55 | 41.50426 | 118.73524 | 30198 ft | 438 kts | 271° |
| 2026-04-24 15:56 | 41.50239 | 118.65433 | 30206 ft | 439 kts | 271° |
| 2026-04-24 15:56 | 41.50052 | 118.57260 | 30217 ft | 438 kts | 271° |
| 2026-04-24 15:57 | 41.49865 | 118.49156 | 29845 ft | 441 kts | 271° |
| 2026-04-24 15:57 | 41.49800 | 118.46442 | 29550 ft | 437 kts | 271° |
| 2026-04-24 15:57 | 41.49704 | 118.41069 | 28955 ft | 426 kts | 273° |
| 2026-04-24 15:58 | 41.49720 | 118.37157 | 28516 ft | 418 kts | 274° |
| 2026-04-24 15:58 | 41.49779 | 118.33327 | 28085 ft | 416 kts | 274° |
| 2026-04-24 15:58 | 41.49855 | 118.29390 | 27646 ft | 419 kts | 274° |
| 2026-04-24 15:58 | 41.49927 | 118.25519 | 27220 ft | 423 kts | 274° |
| 2026-04-24 15:59 | 41.49993 | 118.21579 | 26783 ft | 425 kts | 273° |
| 2026-04-24 15:59 | 41.50049 | 118.17643 | 26348 ft | 426 kts | 273° |
| 2026-04-24 15:59 | 41.50099 | 118.13682 | 25914 ft | 426 kts | 273° |
| 2026-04-24 15:59 | 41.50143 | 118.09751 | 25488 ft | 427 kts | 273° |
| 2026-04-24 16:00 | 41.50184 | 118.05804 | 25046 ft | 426 kts | 273° |
| 2026-04-24 16:00 | 41.50222 | 118.01845 | 24597 ft | 423 kts | 273° |
| 2026-04-24 16:00 | 41.50258 | 117.97979 | 24157 ft | 419 kts | 273° |
| 2026-04-24 16:00 | 41.50290 | 117.94120 | 23712 ft | 415 kts | 273° |
| 2026-04-24 16:01 | 41.50322 | 117.90285 | 23269 ft | 412 kts | 272° |
| 2026-04-24 16:01 | 41.50354 | 117.86474 | 22839 ft | 411 kts | 272° |
| 2026-04-24 16:01 | 41.50385 | 117.82667 | 22401 ft | 408 kts | 272° |
| 2026-04-24 16:01 | 41.50412 | 117.78900 | 21963 ft | 404 kts | 272° |
| 2026-04-24 16:02 | 41.50437 | 117.75156 | 21535 ft | 402 kts | 272° |
| 2026-04-24 16:02 | 41.50462 | 117.71452 | 21103 ft | 398 kts | 272° |
| 2026-04-24 16:02 | 41.50485 | 117.67804 | 20697 ft | 395 kts | 273° |
| 2026-04-24 16:02 | 41.50507 | 117.64162 | 20369 ft | 392 kts | 273° |
| 2026-04-24 16:03 | 41.50528 | 117.60496 | 20053 ft | 392 kts | 272° |
| 2026-04-24 16:03 | 41.50549 | 117.56857 | 19734 ft | 391 kts | 272° |
| 2026-04-24 16:03 | 41.50568 | 117.53290 | 19425 ft | 388 kts | 272° |
| 2026-04-24 16:03 | 41.50586 | 117.49710 | 19109 ft | 385 kts | 272° |
| 2026-04-24 16:04 | 41.50545 | 117.46091 | 18791 ft | 385 kts | 269° |
| 2026-04-24 16:04 | 41.50254 | 117.42562 | 18489 ft | 384 kts | 262° |
| 2026-04-24 16:04 | 41.49561 | 117.39158 | 18182 ft | 386 kts | 253° |
| 2026-04-24 16:04 | 41.48879 | 117.36948 | 17976 ft | 386 kts | 249° |
| 2026-04-24 16:05 | 41.45556 | 117.29814 | 17359 ft | 391 kts | 233° |
| 2026-04-24 16:05 | 41.43611 | 117.27253 | 17110 ft | 393 kts | 224° |
| 2026-04-24 16:06 | 41.39061 | 117.23238 | 16608 ft | 395 kts | 211° |
| 2026-04-24 16:06 | 41.36520 | 117.21771 | 16350 ft | 397 kts | 202° |
| 2026-04-24 16:06 | 41.31158 | 117.19907 | 15848 ft | 397 kts | 195° |
| 2026-04-24 16:07 | 41.28464 | 117.19179 | 15599 ft | 397 kts | 194° |
| 2026-04-24 16:07 | 41.25748 | 117.18460 | 15349 ft | 397 kts | 194° |
| 2026-04-24 16:07 | 41.20322 | 117.16984 | 14842 ft | 393 kts | 195° |
| 2026-04-24 16:08 | 41.17646 | 117.16232 | 14596 ft | 392 kts | 195° |
| 2026-04-24 16:08 | 41.12308 | 117.14709 | 14110 ft | 398 kts | 195° |
| 2026-04-24 16:09 | 41.06836 | 117.13142 | 13609 ft | 398 kts | 196° |
| 2026-04-24 16:09 | 41.04172 | 117.12384 | 13363 ft | 394 kts | 195° |
| 2026-04-24 16:09 | 41.02378 | 117.11874 | 13192 ft | 392 kts | 195° |
| 2026-04-24 16:09 | 40.98819 | 117.10860 | 12862 ft | 391 kts | 195° |
| 2026-04-24 16:10 | 40.90843 | 117.08595 | 12117 ft | 385 kts | 194° |
| 2026-04-24 16:11 | 40.85784 | 117.07167 | 11771 ft | 357 kts | 194° |
| 2026-04-24 16:11 | 40.83389 | 117.06491 | 11766 ft | 344 kts | 194° |
| 2026-04-24 16:11 | 40.81049 | 117.05827 | 11767 ft | 345 kts | 194° |
| 2026-04-24 16:12 | 40.76263 | 117.04464 | 11769 ft | 350 kts | 195° |
| 2026-04-24 16:12 | 40.73945 | 117.03568 | 11761 ft | 347 kts | 204° |
| 2026-04-24 16:12 | 40.70002 | 116.99947 | 11576 ft | 344 kts | 224° |
| 2026-04-24 16:13 | 40.68267 | 116.97852 | 11421 ft | 334 kts | 225° |
| 2026-04-24 16:13 | 40.64931 | 116.93850 | 11111 ft | 314 kts | 223° |
| 2026-04-24 16:14 | 40.61622 | 116.90050 | 10830 ft | 317 kts | 223° |
| 2026-04-24 16:14 | 40.59944 | 116.88153 | 10674 ft | 318 kts | 222° |
| 2026-04-24 16:14 | 40.56596 | 116.84376 | 10367 ft | 315 kts | 222° |
| 2026-04-24 16:15 | 40.55501 | 116.83142 | 10268 ft | 314 kts | 222° |
| 2026-04-24 16:15 | 40.51657 | 116.78812 | 9917 ft | 311 kts | 221° |
| 2026-04-24 16:16 | 40.48364 | 116.75107 | 9810 ft | 311 kts | 221° |
| 2026-04-24 16:16 | 40.46717 | 116.73254 | 9808 ft | 312 kts | 221° |
| 2026-04-24 16:17 | 40.41388 | 116.68353 | 9797 ft | 313 kts | 195° |
| 2026-04-24 16:17 | 40.37007 | 116.68547 | 9723 ft | 319 kts | 172° |
| 2026-04-24 16:18 | 40.32641 | 116.69345 | 9234 ft | 313 kts | 173° |
| 2026-04-24 16:18 | 40.28341 | 116.70041 | 8767 ft | 309 kts | 174° |
| 2026-04-24 16:18 | 40.26204 | 116.70367 | 8538 ft | 309 kts | 174° |
| 2026-04-24 16:19 | 40.21923 | 116.71024 | 8046 ft | 307 kts | 174° |
| 2026-04-24 16:19 | 40.19816 | 116.71353 | 7811 ft | 303 kts | 174° |
| 2026-04-24 16:20 | 40.15717 | 116.71993 | 7319 ft | 290 kts | 175° |
| 2026-04-24 16:20 | 40.11703 | 116.72613 | 6842 ft | 287 kts | 175° |
| 2026-04-24 16:20 | 40.09751 | 116.72916 | 6785 ft | 283 kts | 175° |
| 2026-04-24 16:21 | 40.05796 | 116.73526 | 6768 ft | 288 kts | 175° |
| 2026-04-24 16:21 | 40.03791 | 116.73829 | 6771 ft | 289 kts | 175° |
| 2026-04-24 16:21 | 40.01781 | 116.74136 | 6770 ft | 290 kts | 174° |
| 2026-04-24 16:22 | 39.99744 | 116.74451 | 6649 ft | 291 kts | 174° |
| 2026-04-24 16:22 | 39.95812 | 116.75064 | 6376 ft | 277 kts | 174° |
| 2026-04-24 16:22 | 39.93914 | 116.75356 | 6254 ft | 277 kts | 174° |
| 2026-04-24 16:23 | 39.91989 | 116.75650 | 6116 ft | 276 kts | 174° |
| 2026-04-24 16:23 | 39.90078 | 116.75943 | 6000 ft | 273 kts | 174° |
| 2026-04-24 16:23 | 39.88222 | 116.76230 | 5809 ft | 266 kts | 174° |
| 2026-04-24 16:24 | 39.84523 | 116.76799 | 4906 ft | 265 kts | 174° |
| 2026-04-24 16:24 | 39.82711 | 116.77077 | 4465 ft | 261 kts | 174° |
| 2026-04-24 16:24 | 39.80904 | 116.77355 | 4016 ft | 257 kts | 174° |
| 2026-04-24 16:24 | 39.79153 | 116.77624 | 3574 ft | 253 kts | 174° |
| 2026-04-24 16:25 | 39.77409 | 116.77890 | 3127 ft | 250 kts | 174° |
| 2026-04-24 16:25 | 39.75677 | 116.78153 | 2676 ft | 247 kts | 174° |
| 2026-04-24 16:25 | 39.73971 | 116.78336 | 2227 ft | 245 kts | 186° |
| 2026-04-24 16:26 | 39.71439 | 116.76009 | 1868 ft | 216 kts | 243° |
| 2026-04-24 16:26 | 39.70921 | 116.74255 | 1916 ft | 203 kts | 254° |
| 2026-04-24 16:26 | 39.71218 | 116.70683 | 1883 ft | 209 kts | 298° |
| 2026-04-24 16:27 | 39.72116 | 116.69159 | 1875 ft | 212 kts | 315° |
| 2026-04-24 16:27 | 39.73350 | 116.68118 | 1874 ft | 214 kts | 338° |
| 2026-04-24 16:27 | 39.74766 | 116.67509 | 1875 ft | 214 kts | 342° |
| 2026-04-24 16:27 | 39.76191 | 116.66915 | 1874 ft | 214 kts | 341° |
| 2026-04-24 16:28 | 39.77618 | 116.66280 | 1866 ft | 213 kts | 341° |
| 2026-04-24 16:28 | 39.79047 | 116.65819 | 1866 ft | 211 kts | 352° |
| 2026-04-24 16:28 | 39.81802 | 116.65516 | 1879 ft | 184 kts | 353° |
| 2026-04-24 16:29 | 39.83058 | 116.65327 | 1887 ft | 175 kts | 353° |
| 2026-04-24 16:29 | 39.84255 | 116.65140 | 1860 ft | 169 kts | 353° |
| 2026-04-24 16:29 | 39.86452 | 116.64798 | 1874 ft | 156 kts | 353° |
| 2026-04-24 16:30 | 39.88654 | 116.64455 | 1869 ft | 157 kts | 352° |
| 2026-04-24 16:30 | 39.89750 | 116.64285 | 1875 ft | 157 kts | 353° |
| 2026-04-24 16:30 | 39.90828 | 116.64118 | 1870 ft | 156 kts | 353° |
| 2026-04-24 16:31 | 39.91914 | 116.63949 | 1873 ft | 156 kts | 353° |
| 2026-04-24 16:31 | 39.92992 | 116.63779 | 1869 ft | 156 kts | 353° |
| 2026-04-24 16:31 | 39.94096 | 116.63607 | 1870 ft | 158 kts | 353° |
| 2026-04-24 16:31 | 39.95185 | 116.63437 | 1872 ft | 156 kts | 354° |
| 2026-04-24 16:32 | 39.95902 | 116.63325 | 1866 ft | 156 kts | 354° |
| 2026-04-24 16:32 | 39.97360 | 116.63098 | 1842 ft | 158 kts | 354° |
| 2026-04-24 16:32 | 39.98453 | 116.62927 | 1613 ft | 160 kts | 353° |
| 2026-04-24 16:32 | 39.99542 | 116.62756 | 1384 ft | 152 kts | 353° |
| 2026-04-24 16:33 | 40.00598 | 116.62590 | 1202 ft | 153 kts | 353° |
| 2026-04-24 16:33 | 40.01660 | 116.62424 | 992 ft | 153 kts | 353° |
| 2026-04-24 16:33 | 40.02723 | 116.62254 | 793 ft | 151 kts | 353° |
| 2026-04-24 16:33 | 40.03753 | 116.62086 | 590 ft | 151 kts | 354° |
| 2026-04-24 16:34 | 40.04793 | 116.61922 | 392 ft | 149 kts | 354° |
| 2026-04-24 16:34 | 40.05835 | 116.61761 | 182 ft | 149 kts | 354° |
| 2026-04-24 16:34 | 40.06837 | 116.61600 | 125 ft | 134 kts | 354° |
| 2026-04-24 16:34 | 40.07562 | 116.61496 | 124 ft | 59 kts | 348° |
| 2026-04-24 16:35 | 40.07838 | 116.61401 | 124 ft | 36 kts | 335° |
| 2026-04-24 16:35 | 40.08025 | 116.61234 | 124 ft | 28 kts | 323° |
| 2026-04-24 16:35 | 40.08093 | 116.61073 | 124 ft | 18 kts | 264° |
| 2026-04-24 16:35 | 40.08062 | 116.60928 | 124 ft | 15 kts | 234° |
| 2026-04-24 16:36 | 40.08000 | 116.60841 | 124 ft | 9 kts | 193° |
| 2026-04-24 16:36 | 40.07948 | 116.60868 | 124 ft | 8 kts | 145° |
| 2026-04-24 16:36 | 40.07925 | 116.60889 | 124 ft | 2 kts | 144° |
| 2026-04-24 16:36 | 40.07923 | 116.60892 | 124 ft | 0 kts | 144° |